sensor_id;sensor_type;location;lat;lon;timestamp;pressure;altitude;pressure_sealevel;temperature;humidity
6680;BME280;3376;42.664;23.346;2023-02-19T00:01:18;94780.72;;;7.91;68.77
6680;BME280;3376;42.664;23.346;2023-02-19T00:03:48;94709.16;;;7.34;68.72
6680;BME280;3376;42.664;23.346;2023-02-19T00:06:17;94813.41;;;7.83;69.93
6680;BME280;3376;42.664;23.346;2023-02-19T00:08:44;94809.84;;;7.84;70.10
6680;BME280;3376;42.664;23.346;2023-02-19T00:11:14;94792.56;;;7.76;69.39
6680;BME280;3376;42.664;23.346;2023-02-19T00:13:43;94808.03;;;7.76;69.94
6680;BME280;3376;42.664;23.346;2023-02-19T00:16:13;94704.34;;;6.96;70.61
6680;BME280;3376;42.664;23.346;2023-02-19T00:18:41;94805.28;;;7.52;71.61
6680;BME280;3376;42.664;23.346;2023-02-19T00:21:09;94801.03;;;7.43;70.89
6680;BME280;3376;42.664;23.346;2023-02-19T00:23:35;94802.19;;;7.49;71.92
6680;BME280;3376;42.664;23.346;2023-02-19T00:26:03;94802.63;;;7.44;71.29
6680;BME280;3376;42.664;23.346;2023-02-19T00:28:32;94809.88;;;7.23;72.29
6680;BME280;3376;42.664;23.346;2023-02-19T00:31:03;94794.50;;;7.13;72.62
6680;BME280;3376;42.664;23.346;2023-02-19T00:33:30;94787.22;;;7.09;74.09
6680;BME280;3376;42.664;23.346;2023-02-19T00:35:59;94727.91;;;6.31;74.53
6680;BME280;3376;42.664;23.346;2023-02-19T00:38:26;94789.41;;;6.69;75.76
6680;BME280;3376;42.664;23.346;2023-02-19T00:40:52;94790.22;;;6.69;75.79
6680;BME280;3376;42.664;23.346;2023-02-19T00:43:19;94784.91;;;6.71;75.33
6680;BME280;3376;42.664;23.346;2023-02-19T00:45:47;94781.25;;;6.73;75.64
6680;BME280;3376;42.664;23.346;2023-02-19T00:48:14;94774.56;;;6.80;74.88
6680;BME280;3376;42.664;23.346;2023-02-19T00:50:41;94769.47;;;6.71;75.15
6680;BME280;3376;42.664;23.346;2023-02-19T00:53:08;94767.34;;;6.66;75.52
6680;BME280;3376;42.664;23.346;2023-02-19T00:55:35;94768.72;;;6.61;76.75
6680;BME280;3376;42.664;23.346;2023-02-19T00:58:02;94775.22;;;6.65;75.93
6680;BME280;3376;42.664;23.346;2023-02-19T01:00:29;94766.47;;;6.58;76.96
6680;BME280;3376;42.664;23.346;2023-02-19T01:02:59;94763.97;;;6.66;76.51
6680;BME280;3376;42.664;23.346;2023-02-19T01:05:26;94771.09;;;6.54;76.98
6680;BME280;3376;42.664;23.346;2023-02-19T01:07:52;94595.38;;;5.37;76.58
6680;BME280;3376;42.664;23.346;2023-02-19T01:10:20;94780.19;;;6.49;76.89
6680;BME280;3376;42.664;23.346;2023-02-19T01:12:47;94733.53;;;6.17;77.63
6680;BME280;3376;42.664;23.346;2023-02-19T01:15:14;94772.75;;;6.46;77.85
6680;BME280;3376;42.664;23.346;2023-02-19T01:17:41;94755.69;;;6.45;78.34
6680;BME280;3376;42.664;23.346;2023-02-19T01:20:09;94760.41;;;6.49;78.68
6680;BME280;3376;42.664;23.346;2023-02-19T01:22:36;94774.19;;;6.58;78.19
6680;BME280;3376;42.664;23.346;2023-02-19T01:25:03;94735.69;;;6.39;77.82
6680;BME280;3376;42.664;23.346;2023-02-19T01:27:30;94764.81;;;6.57;77.27
6680;BME280;3376;42.664;23.346;2023-02-19T01:29:57;94671.13;;;6.15;77.31
6680;BME280;3376;42.664;23.346;2023-02-19T01:32:23;94737.69;;;6.45;76.56
6680;BME280;3376;42.664;23.346;2023-02-19T01:34:50;94784.25;;;6.69;76.94
6680;BME280;3376;42.664;23.346;2023-02-19T01:37:18;94791.56;;;6.73;77.36
6680;BME280;3376;42.664;23.346;2023-02-19T01:39:46;94765.16;;;6.71;76.98
6680;BME280;3376;42.664;23.346;2023-02-19T01:42:14;94783.19;;;6.89;76.50
6680;BME280;3376;42.664;23.346;2023-02-19T01:45:21;94797.88;;;6.96;75.77
6680;BME280;3376;42.664;23.346;2023-02-19T01:47:52;94812.75;;;6.85;76.05
6680;BME280;3376;42.664;23.346;2023-02-19T01:50:20;94818.59;;;6.77;76.58
6680;BME280;3376;42.664;23.346;2023-02-19T01:52:48;94782.63;;;6.50;76.71
6680;BME280;3376;42.664;23.346;2023-02-19T01:55:15;94818.16;;;6.64;76.36
6680;BME280;3376;42.664;23.346;2023-02-19T01:57:45;94802.25;;;6.51;76.90
6680;BME280;3376;42.664;23.346;2023-02-19T02:00:14;94818.19;;;6.55;78.09
6680;BME280;3376;42.664;23.346;2023-02-19T02:02:44;94784.00;;;6.18;78.01
6680;BME280;3376;42.664;23.346;2023-02-19T02:05:20;94789.66;;;6.31;79.30
6680;BME280;3376;42.664;23.346;2023-02-19T02:07:51;94807.16;;;6.45;78.35
6680;BME280;3376;42.664;23.346;2023-02-19T02:10:35;94789.66;;;6.21;80.54
6680;BME280;3376;42.664;23.346;2023-02-19T02:13:02;94786.66;;;6.26;79.52
6680;BME280;3376;42.664;23.346;2023-02-19T02:15:36;94802.88;;;6.36;78.40
6680;BME280;3376;42.664;23.346;2023-02-19T02:18:09;94768.81;;;6.24;77.74
6680;BME280;3376;42.664;23.346;2023-02-19T02:20:54;94791.53;;;6.56;76.14
6680;BME280;3376;42.664;23.346;2023-02-19T02:23:32;94801.16;;;6.54;76.85
6680;BME280;3376;42.664;23.346;2023-02-19T02:26:09;94818.78;;;6.49;77.94
6680;BME280;3376;42.664;23.346;2023-02-19T02:29:05;94816.34;;;6.47;77.59
6680;BME280;3376;42.664;23.346;2023-02-19T02:31:41;94814.69;;;6.56;77.80
6680;BME280;3376;42.664;23.346;2023-02-19T02:34:14;94813.81;;;6.65;76.79
6680;BME280;3376;42.664;23.346;2023-02-19T02:36:45;94783.06;;;6.46;76.30
6680;BME280;3376;42.664;23.346;2023-02-19T02:39:16;94792.56;;;6.63;75.82
6680;BME280;3376;42.664;23.346;2023-02-19T02:41:48;94805.88;;;6.76;75.35
6680;BME280;3376;42.664;23.346;2023-02-19T02:44:36;94820.25;;;6.78;75.21
6680;BME280;3376;42.664;23.346;2023-02-19T02:47:05;94800.44;;;6.79;75.08
6680;BME280;3376;42.664;23.346;2023-02-19T02:49:52;94804.72;;;6.88;74.87
6680;BME280;3376;42.664;23.346;2023-02-19T02:52:31;94803.53;;;6.82;74.67
6680;BME280;3376;42.664;23.346;2023-02-19T02:55:17;94799.44;;;6.72;74.74
6680;BME280;3376;42.664;23.346;2023-02-19T02:57:44;94807.78;;;6.56;75.95
6680;BME280;3376;42.664;23.346;2023-02-19T03:00:12;94754.34;;;5.96;77.27
6680;BME280;3376;42.664;23.346;2023-02-19T03:02:41;94763.81;;;5.95;78.40
6680;BME280;3376;42.664;23.346;2023-02-19T03:05:12;94800.78;;;6.22;78.12
6680;BME280;3376;42.664;23.346;2023-02-19T03:08:03;94766.69;;;5.83;79.65
6680;BME280;3376;42.664;23.346;2023-02-19T03:10:35;94802.53;;;5.84;79.82
6680;BME280;3376;42.664;23.346;2023-02-19T03:13:07;94808.47;;;5.85;79.97
6680;BME280;3376;42.664;23.346;2023-02-19T03:15:58;94810.78;;;5.78;80.96
6680;BME280;3376;42.664;23.346;2023-02-19T03:18:45;94814.75;;;5.63;81.94
6680;BME280;3376;42.664;23.346;2023-02-19T03:21:33;94822.81;;;5.78;81.85
6680;BME280;3376;42.664;23.346;2023-02-19T03:24:02;94827.94;;;5.78;81.85
6680;BME280;3376;42.664;23.346;2023-02-19T03:26:47;94832.97;;;5.70;81.71
6680;BME280;3376;42.664;23.346;2023-02-19T03:29:19;94837.69;;;5.74;81.43
6680;BME280;3376;42.664;23.346;2023-02-19T03:31:53;94842.16;;;5.91;82.19
6680;BME280;3376;42.664;23.346;2023-02-19T03:34:25;94784.06;;;5.52;81.83
6680;BME280;3376;42.664;23.346;2023-02-19T03:37:00;94837.16;;;5.80;80.78
6680;BME280;3376;42.664;23.346;2023-02-19T03:39:29;94851.78;;;5.70;82.69
6680;BME280;3376;42.664;23.346;2023-02-19T03:42:00;94840.44;;;5.54;82.38
6680;BME280;3376;42.664;23.346;2023-02-19T03:44:39;94860.19;;;5.53;83.48
6680;BME280;3376;42.664;23.346;2023-02-19T03:47:14;94862.63;;;5.55;83.20
6680;BME280;3376;42.664;23.346;2023-02-19T03:49:47;94861.28;;;5.60;83.14
6680;BME280;3376;42.664;23.346;2023-02-19T03:52:18;94845.19;;;5.58;83.65
6680;BME280;3376;42.664;23.346;2023-02-19T03:54:51;94843.16;;;5.62;82.51
6680;BME280;3376;42.664;23.346;2023-02-19T03:57:28;94862.88;;;5.71;82.90
6680;BME280;3376;42.664;23.346;2023-02-19T04:00:02;94854.50;;;5.69;82.97
6680;BME280;3376;42.664;23.346;2023-02-19T04:02:34;94849.22;;;5.70;83.30
6680;BME280;3376;42.664;23.346;2023-02-19T04:05:09;94873.16;;;5.90;81.45
6680;BME280;3376;42.664;23.346;2023-02-19T04:07:41;94869.34;;;5.84;81.25
6680;BME280;3376;42.664;23.346;2023-02-19T04:10:10;94857.19;;;5.86;82.07
6680;BME280;3376;42.664;23.346;2023-02-19T04:12:41;94841.50;;;5.70;81.85
6680;BME280;3376;42.664;23.346;2023-02-19T04:15:13;94828.97;;;5.48;81.30
6680;BME280;3376;42.664;23.346;2023-02-19T04:17:45;94853.28;;;5.63;82.45
6680;BME280;3376;42.664;23.346;2023-02-19T04:20:16;94870.47;;;5.72;83.37
6680;BME280;3376;42.664;23.346;2023-02-19T04:22:44;94850.72;;;5.63;81.91
6680;BME280;3376;42.664;23.346;2023-02-19T04:25:11;94853.44;;;5.62;82.57
6680;BME280;3376;42.664;23.346;2023-02-19T04:27:38;94731.84;;;4.77;83.38
6680;BME280;3376;42.664;23.346;2023-02-19T04:30:10;94885.59;;;5.66;82.41
6680;BME280;3376;42.664;23.346;2023-02-19T04:32:37;94879.41;;;5.49;83.16
6680;BME280;3376;42.664;23.346;2023-02-19T04:35:04;94864.66;;;5.32;84.34
6680;BME280;3376;42.664;23.346;2023-02-19T04:37:32;94874.94;;;5.32;84.16
6680;BME280;3376;42.664;23.346;2023-02-19T04:39:59;94854.81;;;5.09;85.51
6680;BME280;3376;42.664;23.346;2023-02-19T04:42:26;94870.47;;;5.15;85.69
6680;BME280;3376;42.664;23.346;2023-02-19T04:44:53;94872.63;;;5.10;85.67
6680;BME280;3376;42.664;23.346;2023-02-19T04:47:20;94863.19;;;5.11;85.87
6680;BME280;3376;42.664;23.346;2023-02-19T04:49:46;94869.38;;;5.08;85.57
6680;BME280;3376;42.664;23.346;2023-02-19T04:52:13;94881.03;;;5.12;85.35
6680;BME280;3376;42.664;23.346;2023-02-19T04:54:41;94884.78;;;5.08;86.61
6680;BME280;3376;42.664;23.346;2023-02-19T04:57:08;94868.84;;;4.95;87.76
6680;BME280;3376;42.664;23.346;2023-02-19T04:59:35;94872.47;;;4.83;86.91
6680;BME280;3376;42.664;23.346;2023-02-19T05:02:01;94694.72;;;3.75;86.87
6680;BME280;3376;42.664;23.346;2023-02-19T05:04:28;94892.09;;;5.03;87.40
6680;BME280;3376;42.664;23.346;2023-02-19T05:06:55;94892.09;;;5.03;87.57
6680;BME280;3376;42.664;23.346;2023-02-19T05:09:21;94845.34;;;4.90;86.72
6680;BME280;3376;42.664;23.346;2023-02-19T05:11:50;94894.81;;;5.21;87.07
6680;BME280;3376;42.664;23.346;2023-02-19T05:14:16;94873.56;;;5.09;86.75
6680;BME280;3376;42.664;23.346;2023-02-19T05:16:43;94887.91;;;5.21;86.38
6680;BME280;3376;42.664;23.346;2023-02-19T05:19:10;94887.66;;;5.34;86.43
6680;BME280;3376;42.664;23.346;2023-02-19T05:21:37;94895.63;;;5.50;85.81
6680;BME280;3376;42.664;23.346;2023-02-19T05:24:05;94896.81;;;5.55;85.49
6680;BME280;3376;42.664;23.346;2023-02-19T05:26:32;94898.31;;;5.77;85.27
6680;BME280;3376;42.664;23.346;2023-02-19T05:29:00;94883.97;;;5.93;82.94
6680;BME280;3376;42.664;23.346;2023-02-19T05:31:28;94866.66;;;5.95;80.59
6680;BME280;3376;42.664;23.346;2023-02-19T05:33:58;94908.91;;;6.30;81.29
6680;BME280;3376;42.664;23.346;2023-02-19T05:36:25;94904.28;;;6.43;80.18
6680;BME280;3376;42.664;23.346;2023-02-19T05:38:52;94915.88;;;6.56;78.04
6680;BME280;3376;42.664;23.346;2023-02-19T05:41:21;94918.41;;;6.66;77.37
6680;BME280;3376;42.664;23.346;2023-02-19T05:43:49;94876.25;;;6.40;77.13
6680;BME280;3376;42.664;23.346;2023-02-19T05:46:19;94916.19;;;6.71;77.40
6680;BME280;3376;42.664;23.346;2023-02-19T05:48:46;94911.44;;;6.76;77.69
6680;BME280;3376;42.664;23.346;2023-02-19T05:51:15;94916.13;;;6.90;76.53
6680;BME280;3376;42.664;23.346;2023-02-19T05:53:43;94919.44;;;7.00;77.29
6680;BME280;3376;42.664;23.346;2023-02-19T05:56:23;94922.22;;;7.16;76.87
6680;BME280;3376;42.664;23.346;2023-02-19T05:58:52;94915.00;;;7.37;76.41
6680;BME280;3376;42.664;23.346;2023-02-19T06:01:22;94899.47;;;7.47;74.60
6680;BME280;3376;42.664;23.346;2023-02-19T06:03:50;94938.44;;;7.79;72.86
6680;BME280;3376;42.664;23.346;2023-02-19T06:06:17;94922.28;;;7.94;71.74
6680;BME280;3376;42.664;23.346;2023-02-19T06:08:45;94942.44;;;8.16;70.04
6680;BME280;3376;42.664;23.346;2023-02-19T06:11:11;94942.91;;;8.29;69.53
6680;BME280;3376;42.664;23.346;2023-02-19T06:13:38;94950.88;;;8.44;68.52
6680;BME280;3376;42.664;23.346;2023-02-19T06:16:06;94802.88;;;7.76;69.33
6680;BME280;3376;42.664;23.346;2023-02-19T06:18:34;94966.69;;;9.00;67.77
6680;BME280;3376;42.664;23.346;2023-02-19T06:21:02;94927.41;;;8.97;66.21
6680;BME280;3376;42.664;23.346;2023-02-19T06:23:30;94962.59;;;9.31;66.13
6680;BME280;3376;42.664;23.346;2023-02-19T06:26:05;94947.44;;;9.36;65.40
6680;BME280;3376;42.664;23.346;2023-02-19T06:28:31;94952.78;;;9.43;64.30
6680;BME280;3376;42.664;23.346;2023-02-19T06:30:58;94958.75;;;9.43;63.86
6680;BME280;3376;42.664;23.346;2023-02-19T06:33:25;94964.09;;;9.50;64.58
6680;BME280;3376;42.664;23.346;2023-02-19T06:35:59;94951.88;;;9.68;64.74
6680;BME280;3376;42.664;23.346;2023-02-19T06:38:26;94957.53;;;9.80;63.46
6680;BME280;3376;42.664;23.346;2023-02-19T06:40:53;94943.44;;;9.66;64.85
6680;BME280;3376;42.664;23.346;2023-02-19T06:43:20;94957.06;;;10.00;63.70
6680;BME280;3376;42.664;23.346;2023-02-19T06:45:47;94849.84;;;9.71;62.50
6680;BME280;3376;42.664;23.346;2023-02-19T06:48:14;94940.41;;;10.59;60.60
6680;BME280;3376;42.664;23.346;2023-02-19T06:50:40;94920.34;;;11.00;59.20
6680;BME280;3376;42.664;23.346;2023-02-19T06:53:09;94965.34;;;11.84;57.63
6680;BME280;3376;42.664;23.346;2023-02-19T06:55:36;94961.00;;;12.44;56.44
6680;BME280;3376;42.664;23.346;2023-02-19T06:58:05;94946.78;;;12.98;54.24
6680;BME280;3376;42.664;23.346;2023-02-19T07:00:31;94969.97;;;13.73;51.11
6680;BME280;3376;42.664;23.346;2023-02-19T07:02:58;94936.25;;;14.07;48.91
6680;BME280;3376;42.664;23.346;2023-02-19T07:05:25;94973.16;;;14.74;49.03
6680;BME280;3376;42.664;23.346;2023-02-19T07:07:52;94960.91;;;15.08;47.14
6680;BME280;3376;42.664;23.346;2023-02-19T07:10:20;94971.44;;;15.49;45.07
6680;BME280;3376;42.664;23.346;2023-02-19T07:12:47;94961.13;;;15.88;44.35
6680;BME280;3376;42.664;23.346;2023-02-19T07:15:13;94979.97;;;16.51;42.81
6680;BME280;3376;42.664;23.346;2023-02-19T07:17:40;94943.66;;;17.19;40.57
6680;BME280;3376;42.664;23.346;2023-02-19T07:20:07;94963.22;;;17.81;38.85
6680;BME280;3376;42.664;23.346;2023-02-19T07:22:34;94961.13;;;18.33;38.39
6680;BME280;3376;42.664;23.346;2023-02-19T07:25:01;94958.44;;;18.71;37.94
6680;BME280;3376;42.664;23.346;2023-02-19T07:27:29;94956.22;;;19.17;36.14
6680;BME280;3376;42.664;23.346;2023-02-19T07:29:56;94933.34;;;19.60;34.27
6680;BME280;3376;42.664;23.346;2023-02-19T07:32:23;94922.31;;;20.00;33.71
6680;BME280;3376;42.664;23.346;2023-02-19T07:34:50;94944.56;;;20.56;33.52
6680;BME280;3376;42.664;23.346;2023-02-19T07:37:17;94953.66;;;20.95;33.08
6680;BME280;3376;42.664;23.346;2023-02-19T07:39:43;94952.31;;;20.92;32.69
6680;BME280;3376;42.664;23.346;2023-02-19T07:42:10;94947.69;;;20.88;32.58
6680;BME280;3376;42.664;23.346;2023-02-19T07:44:38;94947.63;;;21.18;32.59
6680;BME280;3376;42.664;23.346;2023-02-19T07:49:31;94946.47;;;21.14;31.55
6680;BME280;3376;42.664;23.346;2023-02-19T07:51:59;94930.91;;;21.00;31.80
6680;BME280;3376;42.664;23.346;2023-02-19T07:54:26;94752.91;;;19.66;32.23
6680;BME280;3376;42.664;23.346;2023-02-19T07:56:52;94825.34;;;20.15;32.63
6680;BME280;3376;42.664;23.346;2023-02-19T07:59:19;94950.59;;;20.98;32.32
6680;BME280;3376;42.664;23.346;2023-02-19T08:01:48;94926.66;;;21.11;31.42
6680;BME280;3376;42.664;23.346;2023-02-19T08:04:32;94947.13;;;21.55;31.23
6680;BME280;3376;42.664;23.346;2023-02-19T08:07:00;94752.19;;;20.46;31.70
6680;BME280;3376;42.664;23.346;2023-02-19T08:09:26;94940.31;;;21.71;30.86
6680;BME280;3376;42.664;23.346;2023-02-19T08:11:53;94929.75;;;21.94;30.69
6680;BME280;3376;42.664;23.346;2023-02-19T08:14:37;94911.59;;;21.46;31.53
6680;BME280;3376;42.664;23.346;2023-02-19T08:17:05;94941.88;;;21.95;30.81
6680;BME280;3376;42.664;23.346;2023-02-19T08:19:32;94774.84;;;21.10;29.89
6680;BME280;3376;42.664;23.346;2023-02-19T08:21:59;94938.03;;;22.14;30.25
6680;BME280;3376;42.664;23.346;2023-02-19T08:24:25;94925.91;;;22.01;30.23
6680;BME280;3376;42.664;23.346;2023-02-19T08:26:52;94930.06;;;21.97;30.67
6680;BME280;3376;42.664;23.346;2023-02-19T08:29:19;94930.41;;;21.38;31.35
6680;BME280;3376;42.664;23.346;2023-02-19T08:31:46;94931.47;;;20.91;31.71
6680;BME280;3376;42.664;23.346;2023-02-19T08:34:14;94933.63;;;20.94;31.71
6680;BME280;3376;42.664;23.346;2023-02-19T08:36:41;94932.06;;;21.05;31.65
6680;BME280;3376;42.664;23.346;2023-02-19T08:39:08;94931.94;;;21.23;31.39
6680;BME280;3376;42.664;23.346;2023-02-19T08:41:35;94936.06;;;21.07;31.52
6680;BME280;3376;42.664;23.346;2023-02-19T08:44:02;94900.28;;;20.53;31.76
6680;BME280;3376;42.664;23.346;2023-02-19T08:46:28;94928.09;;;20.61;31.57
6680;BME280;3376;42.664;23.346;2023-02-19T08:48:55;94909.69;;;20.84;32.06
6680;BME280;3376;42.664;23.346;2023-02-19T08:51:23;94923.16;;;21.57;31.12
6680;BME280;3376;42.664;23.346;2023-02-19T08:53:50;94913.75;;;21.61;30.52
6680;BME280;3376;42.664;23.346;2023-02-19T08:56:17;94915.44;;;22.06;30.32
6680;BME280;3376;42.664;23.346;2023-02-19T08:58:44;94919.00;;;22.29;30.14
6680;BME280;3376;42.664;23.346;2023-02-19T09:01:12;94904.53;;;22.14;30.21
6680;BME280;3376;42.664;23.346;2023-02-19T09:03:39;94908.41;;;21.33;31.15
6680;BME280;3376;42.664;23.346;2023-02-19T09:06:06;94900.97;;;20.72;32.18
6680;BME280;3376;42.664;23.346;2023-02-19T09:08:35;94880.78;;;20.31;33.30
6680;BME280;3376;42.664;23.346;2023-02-19T09:11:03;94891.78;;;20.40;33.37
6680;BME280;3376;42.664;23.346;2023-02-19T09:13:31;94892.16;;;20.14;33.96
6680;BME280;3376;42.664;23.346;2023-02-19T09:15:58;94729.53;;;19.46;33.89
6680;BME280;3376;42.664;23.346;2023-02-19T09:18:25;94853.09;;;20.52;33.04
6680;BME280;3376;42.664;23.346;2023-02-19T09:20:52;94853.47;;;20.67;33.11
6680;BME280;3376;42.664;23.346;2023-02-19T09:23:19;94866.50;;;20.96;32.59
6680;BME280;3376;42.664;23.346;2023-02-19T09:25:47;94868.34;;;21.19;32.20
6680;BME280;3376;42.664;23.346;2023-02-19T09:28:14;94868.22;;;20.68;32.75
6680;BME280;3376;42.664;23.346;2023-02-19T09:30:41;94883.00;;;20.80;32.52
6680;BME280;3376;42.664;23.346;2023-02-19T09:33:07;94868.13;;;20.97;32.66
6680;BME280;3376;42.664;23.346;2023-02-19T09:35:37;94867.75;;;21.29;32.47
6680;BME280;3376;42.664;23.346;2023-02-19T09:38:04;94876.34;;;21.36;32.02
6680;BME280;3376;42.664;23.346;2023-02-19T09:40:31;94860.56;;;21.13;32.70
6680;BME280;3376;42.664;23.346;2023-02-19T09:42:59;94871.66;;;21.26;32.37
6680;BME280;3376;42.664;23.346;2023-02-19T09:45:26;94850.69;;;20.96;33.61
6680;BME280;3376;42.664;23.346;2023-02-19T09:47:55;94833.88;;;20.86;36.04
6680;BME280;3376;42.664;23.346;2023-02-19T09:50:29;94850.38;;;20.70;34.10
6680;BME280;3376;42.664;23.346;2023-02-19T09:52:59;94849.91;;;20.73;34.51
6680;BME280;3376;42.664;23.346;2023-02-19T09:55:33;94858.97;;;21.12;37.87
6680;BME280;3376;42.664;23.346;2023-02-19T09:58:15;94835.03;;;21.41;46.66
6680;BME280;3376;42.664;23.346;2023-02-19T10:00:46;94841.59;;;22.40;36.68
6680;BME280;3376;42.664;23.346;2023-02-19T10:03:21;94822.69;;;22.48;32.27
6680;BME280;3376;42.664;23.346;2023-02-19T10:05:49;94829.28;;;22.45;32.43
6680;BME280;3376;42.664;23.346;2023-02-19T10:08:18;94830.63;;;22.48;32.66
6680;BME280;3376;42.664;23.346;2023-02-19T10:10:45;94821.97;;;22.19;31.78
6680;BME280;3376;42.664;23.346;2023-02-19T10:13:17;94790.69;;;21.94;32.87
6680;BME280;3376;42.664;23.346;2023-02-19T10:15:46;94781.19;;;21.93;32.13
6680;BME280;3376;42.664;23.346;2023-02-19T10:18:18;94806.88;;;22.14;31.31
6680;BME280;3376;42.664;23.346;2023-02-19T10:20:46;94759.81;;;22.11;32.46
6680;BME280;3376;42.664;23.346;2023-02-19T10:23:14;94796.00;;;22.28;32.16
6680;BME280;3376;42.664;23.346;2023-02-19T10:25:44;94783.97;;;22.53;31.17
6680;BME280;3376;42.664;23.346;2023-02-19T10:28:16;94793.44;;;23.09;32.22
6680;BME280;3376;42.664;23.346;2023-02-19T10:30:44;94759.72;;;23.16;29.02
6680;BME280;3376;42.664;23.346;2023-02-19T10:33:15;94776.88;;;23.13;30.87
6680;BME280;3376;42.664;23.346;2023-02-19T10:35:54;94722.41;;;22.53;30.80
6680;BME280;3376;42.664;23.346;2023-02-19T10:38:24;94773.88;;;22.67;30.96
6680;BME280;3376;42.664;23.346;2023-02-19T10:40:59;94774.09;;;22.82;32.45
6680;BME280;3376;42.664;23.346;2023-02-19T10:43:29;94739.47;;;22.62;30.44
6680;BME280;3376;42.664;23.346;2023-02-19T10:46:00;94760.25;;;22.75;30.20
6680;BME280;3376;42.664;23.346;2023-02-19T10:48:30;94578.16;;;22.03;31.20
6680;BME280;3376;42.664;23.346;2023-02-19T10:51:01;94752.78;;;23.10;29.79
6680;BME280;3376;42.664;23.346;2023-02-19T10:53:40;94743.00;;;23.32;31.05
6680;BME280;3376;42.664;23.346;2023-02-19T10:56:09;94723.50;;;23.16;29.14
6680;BME280;3376;42.664;23.346;2023-02-19T10:58:38;94728.44;;;23.08;30.13
6680;BME280;3376;42.664;23.346;2023-02-19T11:01:15;94734.34;;;22.93;32.10
6680;BME280;3376;42.664;23.346;2023-02-19T11:03:44;94719.44;;;23.09;29.94
6680;BME280;3376;42.664;23.346;2023-02-19T11:06:12;94717.69;;;22.93;32.49
6680;BME280;3376;42.664;23.346;2023-02-19T11:08:46;94714.13;;;22.82;32.35
6680;BME280;3376;42.664;23.346;2023-02-19T11:11:26;94566.63;;;21.71;34.31
6680;BME280;3376;42.664;23.346;2023-02-19T11:13:57;94706.88;;;22.73;33.02
6680;BME280;3376;42.664;23.346;2023-02-19T11:16:39;94700.84;;;22.77;32.97
6680;BME280;3376;42.664;23.346;2023-02-19T11:19:20;94690.41;;;22.87;32.44
6680;BME280;3376;42.664;23.346;2023-02-19T11:21:48;94680.75;;;22.98;31.65
6680;BME280;3376;42.664;23.346;2023-02-19T11:24:22;94686.59;;;23.48;31.58
6680;BME280;3376;42.664;23.346;2023-02-19T11:26:51;94674.00;;;23.97;31.09
6680;BME280;3376;42.664;23.346;2023-02-19T11:29:21;94676.00;;;24.58;29.75
6680;BME280;3376;42.664;23.346;2023-02-19T11:31:49;94653.63;;;24.96;28.54
6680;BME280;3376;42.664;23.346;2023-02-19T11:34:26;94662.78;;;25.30;28.75
6680;BME280;3376;42.664;23.346;2023-02-19T11:37:08;94658.00;;;25.37;26.26
6680;BME280;3376;42.664;23.346;2023-02-19T11:39:35;94647.72;;;25.50;26.74
6680;BME280;3376;42.664;23.346;2023-02-19T11:42:29;94640.75;;;25.34;26.23
6680;BME280;3376;42.664;23.346;2023-02-19T11:45:16;94613.75;;;24.61;26.44
6680;BME280;3376;42.664;23.346;2023-02-19T11:48:02;94464.72;;;23.15;27.12
6680;BME280;3376;42.664;23.346;2023-02-19T11:50:42;94514.97;;;23.20;27.67
6680;BME280;3376;42.664;23.346;2023-02-19T11:53:15;94638.78;;;23.96;28.36
6680;BME280;3376;42.664;23.346;2023-02-19T11:56:00;94628.13;;;23.81;26.58
6680;BME280;3376;42.664;23.346;2023-02-19T11:58:56;94625.00;;;23.89;27.32
6680;BME280;3376;42.664;23.346;2023-02-19T12:01:34;94620.22;;;23.86;27.25
6680;BME280;3376;42.664;23.346;2023-02-19T12:04:31;94603.31;;;23.56;27.21
6680;BME280;3376;42.664;23.346;2023-02-19T12:07:07;94605.25;;;23.34;27.12
6680;BME280;3376;42.664;23.346;2023-02-19T12:09:46;94600.34;;;23.47;27.88
6680;BME280;3376;42.664;23.346;2023-02-19T12:12:28;94579.34;;;23.31;27.43
6680;BME280;3376;42.664;23.346;2023-02-19T12:15:09;94580.63;;;23.01;27.42
6680;BME280;3376;42.664;23.346;2023-02-19T12:17:57;94588.22;;;22.93;27.37
6680;BME280;3376;42.664;23.346;2023-02-19T12:20:33;94578.97;;;23.22;27.64
6680;BME280;3376;42.664;23.346;2023-02-19T12:23:24;94567.31;;;23.50;28.31
6680;BME280;3376;42.664;23.346;2023-02-19T12:26:00;94576.53;;;23.15;27.49
6680;BME280;3376;42.664;23.346;2023-02-19T12:29:00;94553.75;;;22.35;27.75
6680;BME280;3376;42.664;23.346;2023-02-19T12:31:51;94564.31;;;22.35;29.21
6680;BME280;3376;42.664;23.346;2023-02-19T12:34:44;94569.22;;;22.26;28.99
6680;BME280;3376;42.664;23.346;2023-02-19T12:37:25;94564.41;;;22.01;28.89
6680;BME280;3376;42.664;23.346;2023-02-19T12:40:02;94551.84;;;21.87;29.58
6680;BME280;3376;42.664;23.346;2023-02-19T12:42:48;94538.41;;;21.88;29.13
6680;BME280;3376;42.664;23.346;2023-02-19T12:45:19;94547.75;;;22.17;29.20
6680;BME280;3376;42.664;23.346;2023-02-19T12:47:56;94548.13;;;22.53;28.31
6680;BME280;3376;42.664;23.346;2023-02-19T12:50:26;94544.41;;;22.49;28.94
6680;BME280;3376;42.664;23.346;2023-02-19T12:52:57;94525.88;;;22.97;28.27
6680;BME280;3376;42.664;23.346;2023-02-19T12:55:28;94518.31;;;23.42;27.43
6680;BME280;3376;42.664;23.346;2023-02-19T12:57:58;94518.06;;;23.44;26.90
6680;BME280;3376;42.664;23.346;2023-02-19T13:00:30;94482.88;;;23.06;27.15
6680;BME280;3376;42.664;23.346;2023-02-19T13:03:03;94503.25;;;23.11;26.89
6680;BME280;3376;42.664;23.346;2023-02-19T13:05:39;94494.00;;;22.77;27.26
6680;BME280;3376;42.664;23.346;2023-02-19T13:08:13;94502.09;;;22.97;29.47
6680;BME280;3376;42.664;23.346;2023-02-19T13:10:45;94497.19;;;23.10;28.18
6680;BME280;3376;42.664;23.346;2023-02-19T13:13:18;94500.84;;;23.36;27.17
6680;BME280;3376;42.664;23.346;2023-02-19T13:15:49;94495.59;;;23.41;27.46
6680;BME280;3376;42.664;23.346;2023-02-19T13:18:19;94477.66;;;23.48;27.61
6680;BME280;3376;42.664;23.346;2023-02-19T13:20:50;94359.47;;;22.65;27.74
6680;BME280;3376;42.664;23.346;2023-02-19T13:23:21;94477.97;;;23.20;26.90
6680;BME280;3376;42.664;23.346;2023-02-19T13:26:18;94482.03;;;23.27;27.46
6680;BME280;3376;42.664;23.346;2023-02-19T13:28:58;94437.50;;;22.78;26.91
6680;BME280;3376;42.664;23.346;2023-02-19T13:31:46;94470.81;;;23.15;27.89
6680;BME280;3376;42.664;23.346;2023-02-19T13:34:29;94467.97;;;22.95;27.69
6680;BME280;3376;42.664;23.346;2023-02-19T13:37:05;93895.31;;;19.11;28.52
6680;BME280;3376;42.664;23.346;2023-02-19T13:39:32;94462.28;;;22.24;28.04
6680;BME280;3376;42.664;23.346;2023-02-19T13:41:59;94460.66;;;22.17;29.55